createdAt,value
2022-08-23T00:01:25.500Z,100325.91
2022-08-23T00:03:52.610Z,100319.28
2022-08-23T00:06:19.127Z,100331.97
2022-08-23T00:08:48.320Z,100338.56
2022-08-23T00:11:16.205Z,100340.34
2022-08-23T00:13:47.438Z,100334.38
2022-08-23T00:16:15.761Z,100340.66
2022-08-23T00:18:42.260Z,100331.56
2022-08-23T00:21:15.817Z,100330.19
2022-08-23T00:23:42.284Z,100314.53
2022-08-23T00:26:09.708Z,100322.50
2022-08-23T00:28:36.194Z,100320.81
2022-08-23T00:31:03.616Z,100315.38
2022-08-23T00:33:31.002Z,100315.31
2022-08-23T00:35:57.477Z,100317.97
2022-08-23T00:38:32.856Z,100313.09
2022-08-23T00:41:01.099Z,100327.19
2022-08-23T00:43:27.599Z,100333.25
2022-08-23T00:45:54.102Z,100329.47
2022-08-23T00:48:20.592Z,100330.63
2022-08-23T00:50:47.073Z,100323.63
2022-08-23T00:53:14.502Z,100320.81
2022-08-23T00:55:40.991Z,100337.97
2022-08-23T00:58:07.534Z,100342.72
2022-08-23T01:00:34.025Z,100354.19
2022-08-23T01:03:00.511Z,100349.78
2022-08-23T01:05:29.163Z,100353.91
2022-08-23T01:07:56.655Z,100353.81
2022-08-23T01:10:23.168Z,100350.63
2022-08-23T01:12:49.671Z,100363.22
2022-08-23T01:15:17.078Z,100367.03
2022-08-23T01:17:43.585Z,100356.94
2022-08-23T01:20:10.329Z,100356.06
2022-08-23T01:22:36.888Z,100360.28
2022-08-23T01:25:08.152Z,100394.44
2022-08-23T01:27:36.252Z,100403.81
2022-08-23T01:30:02.734Z,100416.78
2022-08-23T01:32:29.241Z,100420.25
2022-08-23T01:34:55.765Z,100392.50
2022-08-23T01:37:22.318Z,100406.25
2022-08-23T01:39:48.940Z,100389.22
2022-08-23T01:42:16.394Z,100406.84
2022-08-23T01:44:42.880Z,100395.09
2022-08-23T01:47:09.365Z,100381.59
2022-08-23T01:49:35.844Z,100384.53
2022-08-23T01:52:02.335Z,100390.31
2022-08-23T01:54:28.834Z,100401.09
2022-08-23T01:56:55.379Z,100394.72
2022-08-23T01:59:21.847Z,100400.59
2022-08-23T02:01:49.271Z,100401.03
2022-08-23T02:04:16.711Z,100407.34
2022-08-23T02:06:43.217Z,100409.34
2022-08-23T02:09:16.097Z,100413.38
2022-08-23T02:11:45.399Z,100418.06
2022-08-23T02:14:11.897Z,100427.03
2022-08-23T02:16:38.353Z,100419.38
2022-08-23T02:19:04.854Z,100418.72
2022-08-23T02:21:32.240Z,100410.34
2022-08-23T02:23:58.781Z,100407.72
2022-08-23T02:26:31.161Z,100398.38
2022-08-23T02:28:58.888Z,100390.44
2022-08-23T02:31:26.289Z,100375.63
2022-08-23T02:33:54.377Z,100373.88
2022-08-23T02:36:23.245Z,100370.88
2022-08-23T02:38:49.744Z,100367.75
2022-08-23T02:41:16.198Z,100367.53
2022-08-23T02:43:43.592Z,100365.00
2022-08-23T02:46:10.067Z,100369.31
2022-08-23T02:48:36.539Z,100362.38
2022-08-23T02:51:05.115Z,100360.28
2022-08-23T02:53:32.519Z,100359.28
2022-08-23T02:55:58.943Z,100347.53
2022-08-23T02:58:26.333Z,100353.25
2022-08-23T03:00:52.890Z,100344.41
2022-08-23T03:03:20.233Z,100346.41
2022-08-23T03:05:49.102Z,100348.06
2022-08-23T03:08:15.588Z,100350.44
2022-08-23T03:10:42.082Z,100352.78
2022-08-23T03:13:08.635Z,100337.38
2022-08-23T03:15:35.098Z,100329.03
2022-08-23T03:18:01.729Z,100333.00
2022-08-23T03:20:28.624Z,100327.91
2022-08-23T03:22:55.146Z,100322.22
2022-08-23T03:25:21.644Z,100327.44
2022-08-23T03:27:48.126Z,100328.69
2022-08-23T03:30:19.135Z,100336.06
2022-08-23T03:32:48.868Z,100331.16
2022-08-23T03:35:15.861Z,100322.66
2022-08-23T03:37:42.351Z,100329.94
2022-08-23T03:40:08.930Z,100322.75
2022-08-23T03:42:36.367Z,100326.56
2022-08-23T03:45:02.934Z,100315.34
2022-08-23T03:47:29.470Z,100315.34
2022-08-23T03:49:55.938Z,100324.88
2022-08-23T03:52:22.424Z,100321.72
2022-08-23T03:54:49.816Z,100326.22
2022-08-23T03:57:17.264Z,100320.44
2022-08-23T03:59:43.683Z,100314.59
2022-08-23T04:02:10.197Z,100310.47
2022-08-23T04:04:37.645Z,100310.19
2022-08-23T04:07:05.040Z,100305.75
2022-08-23T04:09:32.428Z,100313.66
2022-08-23T04:11:59.803Z,100308.25
2022-08-23T04:14:28.106Z,100307.22
2022-08-23T04:16:55.814Z,100305.69
2022-08-23T04:19:23.614Z,100312.22
2022-08-23T04:21:50.087Z,100317.88
2022-08-23T04:24:17.470Z,100320.63
2022-08-23T04:26:44.855Z,100326.25
2022-08-23T04:29:31.446Z,100328.94
2022-08-23T04:32:01.941Z,100337.47
2022-08-23T04:34:32.772Z,100340.53
2022-08-23T04:36:59.281Z,100351.19
2022-08-23T04:39:26.700Z,100345.91
2022-08-23T04:41:54.210Z,100356.38
2022-08-23T04:44:21.619Z,100365.72
2022-08-23T04:46:49.038Z,100367.41
2022-08-23T04:49:16.464Z,100359.84
2022-08-23T04:51:43.876Z,100368.16
2022-08-23T04:54:22.582Z,100377.00
2022-08-23T04:56:51.824Z,100384.91
2022-08-23T04:59:19.416Z,100378.69
2022-08-23T05:01:45.916Z,100386.09
2022-08-23T05:04:13.325Z,100387.38
2022-08-23T05:06:40.730Z,100383.09
2022-08-23T05:09:07.210Z,100382.75
2022-08-23T05:11:34.634Z,100389.13
2022-08-23T05:14:02.043Z,100392.22
2022-08-23T05:16:29.469Z,100390.72
2022-08-23T05:18:56.884Z,100389.91
2022-08-23T05:21:24.299Z,100385.84
2022-08-23T05:23:54.944Z,100390.72
2022-08-23T05:26:22.527Z,100400.41
2022-08-23T05:28:50.092Z,100405.19
2022-08-23T05:31:17.555Z,100404.81
2022-08-23T05:33:44.031Z,100399.72
2022-08-23T05:36:11.472Z,100395.72
2022-08-23T05:38:38.883Z,100406.09
2022-08-23T05:41:07.076Z,100402.94
2022-08-23T05:43:34.587Z,100403.03
2022-08-23T05:46:01.628Z,100404.47
2022-08-23T05:48:30.147Z,100407.59
2022-08-23T05:50:57.548Z,100412.53
2022-08-23T05:53:24.100Z,100413.16
2022-08-23T05:55:51.489Z,100419.22
2022-08-23T05:58:19.657Z,100421.53
2022-08-23T06:00:46.238Z,100425.03
2022-08-23T06:03:13.646Z,100432.28
2022-08-23T06:05:41.044Z,100432.91
2022-08-23T06:08:08.473Z,100439.28
2022-08-23T06:10:36.081Z,100433.59
2022-08-23T06:13:04.917Z,100441.31
2022-08-23T06:15:32.306Z,100443.41
2022-08-23T06:17:58.878Z,100443.84
2022-08-23T06:20:26.502Z,100445.03
2022-08-23T06:22:53.905Z,100438.75
2022-08-23T06:25:21.295Z,100436.47
2022-08-23T06:27:48.699Z,100440.28
2022-08-23T06:30:16.096Z,100437.00
2022-08-23T06:32:42.647Z,100443.91
2022-08-23T06:35:33.124Z,100445.34
2022-08-23T06:37:58.090Z,100446.47
2022-08-23T06:40:25.652Z,100452.41
2022-08-23T06:42:53.154Z,100451.19
2022-08-23T06:45:20.536Z,100455.84
2022-08-23T06:48:01.206Z,100457.06
2022-08-23T06:50:32.477Z,100454.59
2022-08-23T06:53:00.342Z,100468.88
2022-08-23T06:55:27.068Z,100465.19
2022-08-23T06:57:54.803Z,100465.91
2022-08-23T07:00:22.788Z,100468.53
2022-08-23T07:02:50.077Z,100465.22
2022-08-23T07:05:17.124Z,100463.91
2022-08-23T07:07:44.834Z,100461.00
2022-08-23T07:10:12.559Z,100470.53
2022-08-23T07:12:39.947Z,100456.44
2022-08-23T07:15:06.442Z,100456.25
2022-08-23T07:17:32.908Z,100457.50
2022-08-23T07:20:00.306Z,100451.53
2022-08-23T07:22:26.774Z,100452.59
2022-08-23T07:24:54.242Z,100449.41
2022-08-23T07:27:20.743Z,100461.31
2022-08-23T07:29:47.229Z,100454.69
2022-08-23T07:32:14.668Z,100460.31
2022-08-23T07:34:41.203Z,100449.75
2022-08-23T07:37:11.205Z,100451.31
2022-08-23T07:39:42.089Z,100449.31
2022-08-23T07:42:23.766Z,100459.88
2022-08-23T07:44:51.674Z,100463.56
2022-08-23T07:47:19.259Z,100463.94
2022-08-23T07:49:45.733Z,100456.47
2022-08-23T07:52:12.306Z,100460.59
2022-08-23T07:54:38.852Z,100458.81
2022-08-23T07:57:08.047Z,100460.28
2022-08-23T07:59:34.804Z,100460.97
2022-08-23T08:02:01.400Z,100463.91
2022-08-23T08:04:28.885Z,100455.22
2022-08-23T08:07:17.709Z,100459.53
2022-08-23T08:09:42.748Z,100461.47
2022-08-23T08:12:10.143Z,100461.81
2022-08-23T08:14:37.321Z,100466.09
2022-08-23T08:17:03.932Z,100461.81
2022-08-23T08:19:31.313Z,100459.78
2022-08-23T08:21:57.797Z,100464.72
2022-08-23T08:24:24.296Z,100453.72
2022-08-23T08:26:51.679Z,100459.00
2022-08-23T08:29:19.091Z,100458.56
2022-08-23T08:31:46.493Z,100463.03
2022-08-23T08:34:13.039Z,100470.22
2022-08-23T08:36:40.545Z,100456.28
2022-08-23T08:39:07.184Z,100455.69
2022-08-23T08:41:37.038Z,100459.97
2022-08-23T08:44:03.526Z,100455.78
2022-08-23T08:46:30.058Z,100458.69
2022-08-23T08:48:57.508Z,100461.75
2022-08-23T08:51:23.991Z,100460.41
2022-08-23T08:53:51.375Z,100461.19
2022-08-23T08:56:18.709Z,100464.09
2022-08-23T08:58:45.492Z,100459.16
2022-08-23T09:01:12.020Z,100460.75
2022-08-23T09:03:38.551Z,100469.84
2022-08-23T09:06:09.505Z,100469.50
2022-08-23T09:08:39.848Z,100472.09
2022-08-23T09:11:07.221Z,100465.25
2022-08-23T09:13:33.712Z,100467.59
2022-08-23T09:16:00.216Z,100456.72
2022-08-23T09:18:26.695Z,100465.94
2022-08-23T09:20:53.152Z,100460.75
2022-08-23T09:23:19.679Z,100467.50
2022-08-23T09:25:46.955Z,100459.97
2022-08-23T09:28:14.248Z,100463.13
2022-08-23T09:30:40.699Z,100456.28
2022-08-23T09:33:08.084Z,100455.47
2022-08-23T09:35:35.490Z,100460.31
2022-08-23T09:38:03.054Z,100456.28
2022-08-23T09:40:31.364Z,100460.31
2022-08-23T09:42:58.731Z,100459.09
2022-08-23T09:45:26.531Z,100455.81
2022-08-23T09:47:53.112Z,100454.59
2022-08-23T09:50:20.467Z,100455.81
2022-08-23T09:52:47.829Z,100447.38
2022-08-23T09:55:14.296Z,100456.63
2022-08-23T09:57:41.663Z,100457.75
2022-08-23T10:00:09.051Z,100454.59
2022-08-23T10:02:35.540Z,100456.97
2022-08-23T10:05:03.095Z,100453.72
2022-08-23T10:07:30.536Z,100457.28
2022-08-23T10:09:57.918Z,100445.66
2022-08-23T10:12:25.272Z,100452.03
2022-08-23T10:14:52.650Z,100447.56
2022-08-23T10:17:19.114Z,100447.13
2022-08-23T10:19:47.810Z,100442.28
2022-08-23T10:22:14.380Z,100443.53
2022-08-23T10:24:40.827Z,100444.78
2022-08-23T10:27:07.274Z,100444.78
2022-08-23T10:29:34.506Z,100446.75
2022-08-23T10:32:01.899Z,100440.72
2022-08-23T10:34:29.964Z,100440.72
2022-08-23T10:36:56.559Z,100433.88
2022-08-23T10:39:23.888Z,100438.25
2022-08-23T10:41:51.249Z,100438.59
2022-08-23T10:44:17.729Z,100432.53
2022-08-23T10:46:44.261Z,100435.69
2022-08-23T10:49:11.563Z,100428.47
2022-08-23T10:51:40.375Z,100430.50
2022-08-23T10:54:07.120Z,100432.53
2022-08-23T10:56:34.412Z,100428.03
2022-08-23T10:59:00.824Z,100426.81
2022-08-23T11:01:30.523Z,100424.78
2022-08-23T11:03:57.917Z,100427.59
2022-08-23T11:06:24.377Z,100431.19
2022-08-23T11:08:51.626Z,100418.41
2022-08-23T11:11:18.045Z,100415.59
2022-08-23T11:13:44.451Z,100427.59
2022-08-23T11:16:10.929Z,100423.53
2022-08-23T11:18:37.340Z,100420.72
2022-08-23T11:21:03.788Z,100427.94
2022-08-23T11:23:30.187Z,100423.91
2022-08-23T11:25:58.526Z,100421.09
2022-08-23T11:28:24.953Z,100414.66
2022-08-23T11:31:00.285Z,100417.47
2022-08-23T11:33:26.829Z,100422.19
2022-08-23T11:35:53.309Z,100413.00
2022-08-23T11:38:22.574Z,100414.56
2022-08-23T11:40:51.907Z,100422.19
2022-08-23T11:43:21.093Z,100418.19
2022-08-23T11:45:47.646Z,100417.72
2022-08-23T11:48:14.210Z,100418.50
2022-08-23T11:50:40.593Z,100424.13
2022-08-23T11:53:07.017Z,100415.69
2022-08-23T11:55:33.525Z,100417.72
2022-08-23T11:58:00.058Z,100422.88
2022-08-23T12:00:29.122Z,100420.88
2022-08-23T12:02:56.195Z,100423.22
2022-08-23T12:05:22.678Z,100421.19
2022-08-23T12:07:50.940Z,100423.56
2022-08-23T12:10:20.889Z,100420.44
2022-08-23T12:12:47.537Z,100431.22
2022-08-23T12:15:14.037Z,100421.53
2022-08-23T12:17:42.311Z,100424.34
2022-08-23T12:20:15.571Z,100429.97
2022-08-23T12:22:43.883Z,100415.91
2022-08-23T12:25:14.528Z,100421.53
2022-08-23T12:27:41.012Z,100413.13
2022-08-23T12:30:07.394Z,100417.50
2022-08-23T12:32:34.656Z,100420.31
2022-08-23T12:35:01.090Z,100403.47
2022-08-23T12:37:29.402Z,100411.88
2022-08-23T12:39:57.774Z,100409.84
2022-08-23T12:42:24.232Z,100410.63
2022-08-23T12:44:50.645Z,100405.00
2022-08-23T12:47:17.102Z,100394.22
2022-08-23T12:49:47.014Z,100390.97
2022-08-23T12:52:13.482Z,100400.22
2022-08-23T12:54:39.929Z,100388.97
2022-08-23T12:57:08.255Z,100384.91
2022-08-23T12:59:34.748Z,100392.56
2022-08-23T13:02:01.265Z,100390.53
2022-08-23T13:04:27.672Z,100389.75
2022-08-23T13:06:54.098Z,100401.75
2022-08-23T13:09:20.600Z,100396.16
2022-08-23T13:11:50.520Z,100396.94
2022-08-23T13:14:16.990Z,100391.34
2022-08-23T13:16:43.421Z,100394.91
2022-08-23T13:19:09.889Z,100389.31
2022-08-23T13:21:39.859Z,100380.09
2022-08-23T13:24:06.697Z,100382.91
2022-08-23T13:26:35.014Z,100371.69
2022-08-23T13:29:02.246Z,100363.25
2022-08-23T13:31:28.744Z,100356.38
2022-08-23T13:33:55.119Z,100355.59
2022-08-23T13:36:23.415Z,100344.25
2022-08-23T13:38:49.984Z,100347.72
2022-08-23T13:41:17.281Z,100357.72
2022-08-23T13:43:44.513Z,100362.91
2022-08-23T13:46:11.832Z,100359.63
2022-08-23T13:48:39.118Z,100369.28
2022-08-23T13:51:07.513Z,100375.25
2022-08-23T13:53:40.981Z,100378.38
2022-08-23T13:56:08.233Z,100384.00
2022-08-23T13:58:35.468Z,100388.41
2022-08-23T14:01:02.749Z,100389.63
2022-08-23T14:03:29.179Z,100388.41
2022-08-23T14:05:55.549Z,100393.56
2022-08-23T14:08:22.823Z,100397.94
2022-08-23T14:10:49.194Z,100394.34
2022-08-23T14:13:16.407Z,100393.91
2022-08-23T14:16:32.182Z,100388.72
2022-08-23T14:18:29.183Z,100378.38
2022-08-23T14:20:55.547Z,100375.56
2022-08-23T14:23:21.926Z,100385.47
2022-08-23T14:25:48.344Z,100378.63
2022-08-23T14:28:15.558Z,100388.28
2022-08-23T14:30:41.950Z,100395.81
2022-08-23T14:33:09.211Z,100397.81
2022-08-23T14:35:35.592Z,100405.78
2022-08-23T14:38:04.380Z,100399.41
2022-08-23T14:40:31.539Z,100412.22
2022-08-23T14:42:57.994Z,100419.41
2022-08-23T14:45:25.246Z,100413.78
2022-08-23T14:47:51.615Z,100417.59
2022-08-23T14:50:18.878Z,100416.44
2022-08-23T14:52:45.761Z,100417.34
2022-08-23T14:55:13.061Z,100419.72
2022-08-23T14:57:40.281Z,100434.47
2022-08-23T15:00:06.674Z,100421.00
2022-08-23T15:02:33.073Z,100426.63
2022-08-23T15:05:00.419Z,100423.25
2022-08-23T15:07:26.815Z,100423.81
2022-08-23T15:09:53.186Z,100425.13
2022-08-23T15:15:06.807Z,100416.13
2022-08-23T15:17:33.217Z,100418.53
2022-08-23T15:19:59.571Z,100412.34
2022-08-23T15:22:26.125Z,100414.13
2022-08-23T15:24:52.582Z,100415.13
2022-08-23T15:27:18.935Z,100411.13
2022-08-23T15:29:46.154Z,100422.13
2022-08-23T15:32:12.902Z,100425.13
2022-08-23T15:34:40.187Z,100434.09
2022-08-23T15:37:13.088Z,100437.50
2022-08-23T15:39:40.467Z,100441.94
2022-08-23T15:42:06.860Z,100440.59
2022-08-23T15:44:33.250Z,100445.22
2022-08-23T15:46:59.624Z,100431.47
2022-08-23T15:49:26.862Z,100429.56
2022-08-23T15:51:53.271Z,100434.41
2022-08-23T15:54:19.618Z,100440.13
2022-08-23T15:56:46.843Z,100450.84
2022-08-23T15:59:13.206Z,100455.84
2022-08-23T16:01:39.670Z,100460.31
2022-08-23T16:04:06.112Z,100477.53
2022-08-23T16:06:36.357Z,100480.78
2022-08-23T16:09:03.160Z,100484.53
2022-08-23T16:11:29.533Z,100478.81
2022-08-23T16:13:55.942Z,100487.16
2022-08-23T16:16:22.975Z,100487.06
2022-08-23T16:18:50.315Z,100495.91
2022-08-23T16:21:17.953Z,100496.72
2022-08-23T16:23:45.194Z,100489.53
2022-08-23T16:26:11.595Z,100480.28
2022-08-23T16:28:41.553Z,100488.28
2022-08-23T16:31:07.988Z,100492.91
2022-08-23T16:33:34.596Z,100492.16
2022-08-23T16:36:01.094Z,100495.47
2022-08-23T16:38:29.412Z,100493.56
2022-08-23T16:40:59.362Z,100496.00
2022-08-23T16:43:27.630Z,100505.78
2022-08-23T16:45:54.195Z,100508.34
2022-08-23T16:48:21.478Z,100515.72
2022-08-23T16:50:47.964Z,100518.81
2022-08-23T16:53:14.396Z,100527.44
2022-08-23T16:55:41.654Z,100535.75
2022-08-23T16:58:08.125Z,100533.53
2022-08-23T17:00:35.466Z,100530.25
2022-08-23T17:03:02.190Z,100542.91
2022-08-23T17:05:29.719Z,100540.44
2022-08-23T17:07:56.209Z,100538.50
2022-08-23T17:10:23.955Z,100542.78
2022-08-23T17:12:51.537Z,100549.06
2022-08-23T17:15:20.662Z,100552.22
2022-08-23T17:17:47.269Z,100557.34
2022-08-23T17:20:14.799Z,100551.94
2022-08-23T17:22:42.228Z,100558.31
2022-08-23T17:25:08.943Z,100567.25
2022-08-23T17:27:36.308Z,100579.69
2022-08-23T17:30:03.741Z,100578.81
2022-08-23T17:32:30.207Z,100585.53
2022-08-23T17:34:56.660Z,100573.97
2022-08-23T17:37:24.055Z,100581.88
2022-08-23T17:39:50.653Z,100585.81
2022-08-23T17:42:20.719Z,100586.84
2022-08-23T17:44:48.086Z,100579.41
2022-08-23T17:47:15.489Z,100586.81
2022-08-23T17:49:41.975Z,100584.06
2022-08-23T17:52:08.628Z,100585.72
2022-08-23T17:54:36.022Z,100587.31
2022-08-23T17:57:04.937Z,100584.09
2022-08-23T17:59:32.769Z,100586.56
2022-08-23T18:01:59.209Z,100583.06
2022-08-23T18:04:26.591Z,100581.16
2022-08-23T18:06:53.039Z,100585.63
2022-08-23T18:09:20.389Z,100588.28
2022-08-23T18:11:47.769Z,100591.34
2022-08-23T18:14:15.150Z,100600.38
2022-08-23T18:16:41.619Z,100594.34
2022-08-23T18:19:13.257Z,100604.78
2022-08-23T18:21:39.895Z,100611.34
2022-08-23T18:24:07.220Z,100619.19
2022-08-23T18:26:33.700Z,100617.16
2022-08-23T18:29:00.145Z,100626.09
2022-08-23T18:31:27.496Z,100622.78
2022-08-23T18:33:59.745Z,100619.88
2022-08-23T18:36:27.771Z,100631.53
2022-08-23T18:38:54.479Z,100630.66
2022-08-23T18:41:21.836Z,100629.97
2022-08-23T18:43:48.302Z,100627.84
2022-08-23T18:46:14.858Z,100634.44
2022-08-23T18:48:42.241Z,100631.03
2022-08-23T18:51:18.269Z,100623.75
2022-08-23T18:53:44.736Z,100634.00
2022-08-23T18:56:11.199Z,100630.75
2022-08-23T18:58:37.625Z,100638.84
2022-08-23T19:01:06.519Z,100643.91
2022-08-23T19:03:34.116Z,100643.75
2022-08-23T19:06:00.531Z,100643.94
2022-08-23T19:08:27.018Z,100643.66
2022-08-23T19:10:54.364Z,100647.41
2022-08-23T19:13:20.831Z,100648.38
2022-08-23T19:15:47.282Z,100650.38
2022-08-23T19:18:14.679Z,100647.94
2022-08-23T19:20:41.968Z,100644.88
2022-08-23T19:23:09.246Z,100637.69
2022-08-23T19:25:35.697Z,100645.13
2022-08-23T19:28:02.147Z,100649.09
2022-08-23T19:30:29.475Z,100641.28
2022-08-23T19:32:56.049Z,100646.09
2022-08-23T19:35:22.527Z,100647.06
2022-08-23T19:37:48.946Z,100648.63
2022-08-23T19:40:16.339Z,100643.03
2022-08-23T19:42:43.666Z,100644.00
2022-08-23T19:45:10.178Z,100640.13
2022-08-23T19:47:37.503Z,100634.03
2022-08-23T19:50:03.949Z,100637.97
2022-08-23T19:52:32.172Z,100638.28
2022-08-23T19:55:05.848Z,100645.53
2022-08-23T19:57:34.980Z,100644.78
2022-08-23T20:00:02.350Z,100638.88
2022-08-23T20:02:29.657Z,100641.94
2022-08-23T20:04:57.028Z,100649.28
2022-08-23T20:07:24.340Z,100654.41
2022-08-23T20:09:51.076Z,100649.88
2022-08-23T20:12:17.598Z,100652.16
2022-08-23T20:14:44.053Z,100655.66
2022-08-23T20:17:10.472Z,100656.44
2022-08-23T20:19:37.733Z,100655.78
2022-08-23T20:22:04.190Z,100655.22
2022-08-23T20:24:50.893Z,100662.06
2022-08-23T20:27:28.417Z,100662.94
2022-08-23T20:29:57.470Z,100661.66
2022-08-23T20:32:24.726Z,100658.19
2022-08-23T20:34:51.295Z,100654.44
2022-08-23T20:37:17.740Z,100646.91
2022-08-23T20:39:45.097Z,100649.28
2022-08-23T20:42:12.426Z,100649.28
2022-08-23T20:44:38.859Z,100641.16
2022-08-23T20:47:06.333Z,100647.16
2022-08-23T20:49:33.705Z,100643.56
2022-08-23T20:52:00.165Z,100651.44
2022-08-23T20:54:26.638Z,100643.66
2022-08-23T20:56:53.070Z,100645.66
2022-08-23T20:59:19.822Z,100646.81
2022-08-23T21:01:46.397Z,100645.03
2022-08-23T21:04:13.713Z,100640.16
2022-08-23T21:06:40.966Z,100638.31
2022-08-23T21:09:12.596Z,100641.28
2022-08-23T21:11:39.012Z,100640.75
2022-08-23T21:14:06.430Z,100634.72
2022-08-23T21:16:33.775Z,100638.28
2022-08-23T21:19:01.048Z,100630.81
2022-08-23T21:21:27.497Z,100628.75
2022-08-23T21:23:53.935Z,100624.28
2022-08-23T21:26:21.256Z,100620.88
2022-08-23T21:28:48.531Z,100618.16
2022-08-23T21:31:15.086Z,100622.72
2022-08-23T21:33:42.402Z,100611.44
2022-08-23T21:36:09.651Z,100609.84
2022-08-23T21:38:36.987Z,100615.84
2022-08-23T21:41:03.688Z,100616.91
2022-08-23T21:43:30.113Z,100620.31
2022-08-23T21:45:57.477Z,100626.50
2022-08-23T21:48:23.973Z,100629.59
2022-08-23T21:50:50.433Z,100623.97
2022-08-23T21:53:17.794Z,100622.59
2022-08-23T21:55:45.053Z,100625.47
2022-08-23T21:58:14.571Z,100624.09
2022-08-23T22:00:41.902Z,100623.75
2022-08-23T22:03:09.310Z,100626.47
2022-08-23T22:05:36.638Z,100621.47
2022-08-23T22:08:04.009Z,100624.97
2022-08-23T22:10:31.380Z,100622.06
2022-08-23T22:12:57.868Z,100615.34
2022-08-23T22:15:24.346Z,100617.50
2022-08-23T22:17:50.806Z,100628.63
2022-08-23T22:20:18.162Z,100631.34
2022-08-23T22:22:45.322Z,100624.84
2022-08-23T22:25:11.824Z,100621.47
2022-08-23T22:27:40.147Z,100616.00
2022-08-23T22:30:06.614Z,100628.94
2022-08-23T22:32:33.979Z,100622.81
2022-08-23T22:35:01.228Z,100630.09
2022-08-23T22:37:28.566Z,100626.50
2022-08-23T22:39:55.911Z,100630.81
2022-08-23T22:42:22.403Z,100622.22
2022-08-23T22:44:48.911Z,100627.31
2022-08-23T22:47:15.409Z,100628.09
2022-08-23T22:49:41.910Z,100623.84
2022-08-23T22:52:08.376Z,100643.06
2022-08-23T22:54:34.847Z,100638.94
2022-08-23T22:57:01.304Z,100644.31
2022-08-23T22:59:33.192Z,100658.25
2022-08-23T23:02:00.482Z,100649.38
2022-08-23T23:04:29.988Z,100652.38
2022-08-23T23:06:58.346Z,100655.16
2022-08-23T23:09:25.690Z,100643.63
2022-08-23T23:11:52.136Z,100637.03
2022-08-23T23:14:19.424Z,100643.03
2022-08-23T23:16:45.934Z,100636.81
2022-08-23T23:19:13.231Z,100640.63
2022-08-23T23:21:39.709Z,100647.00
2022-08-23T23:24:06.161Z,100634.22
2022-08-23T23:26:33.439Z,100638.28
2022-08-23T23:29:00.757Z,100645.78
2022-08-23T23:31:28.038Z,100639.72
2022-08-23T23:33:55.306Z,100637.53
2022-08-23T23:36:21.746Z,100645.72
2022-08-23T23:38:48.200Z,100643.94
2022-08-23T23:41:15.557Z,100636.31
2022-08-23T23:43:42.852Z,100644.53
2022-08-23T23:46:10.176Z,100658.53
2022-08-23T23:48:37.580Z,100660.06
2022-08-23T23:51:04.872Z,100658.81
2022-08-23T23:53:32.130Z,100644.91
2022-08-23T23:55:58.649Z,100645.94
2022-08-23T23:58:26.962Z,100640.56
